SWA1765 KMDW-KOKC
Flight info
| Callsign | SWA1765 |
|---|---|
| Flight time | 1h 31m |
| Altitude | 40000 |
| Route | PEKUE PIGGG QUANE CARET ROEZZ BUM J87 TUL GULLI3 |
| Aircraft | B737/M-SADE2E3GIJ4RWZ/LB1D1 |
Departure
| Time | 2026-04-10 14:32 |
|---|---|
| Airport | Chicago Midway International Airport (KMDW) |
Arrival
| Time | 2026-04-10 16:03 |
|---|---|
| Airport | OKC Will Rogers World Airport (KOKC) |
| Time | Latitude | Longitude | Altitude | Speed | Heading |
|---|---|---|---|---|---|
| 2026-04-10 13:57 | 41.78699 | -87.74587 | 635 ft | 0 kts | 135° |
| 2026-04-10 14:22 | 41.78700 | -87.74588 | 636 ft | 1 kts | 135° |
| 2026-04-10 14:22 | 41.78717 | -87.74612 | 629 ft | 4 kts | 135° |
| 2026-04-10 14:22 | 41.78736 | -87.74634 | 628 ft | 4 kts | 164° |
| 2026-04-10 14:23 | 41.78754 | -87.74630 | 630 ft | 2 kts | 225° |
| 2026-04-10 14:23 | 41.78764 | -87.74616 | 630 ft | 0 kts | 225° |
| 2026-04-10 14:26 | 41.78764 | -87.74617 | 630 ft | 0 kts | 225° |
| 2026-04-10 14:26 | 41.78763 | -87.74634 | 634 ft | 4 kts | 280° |
| 2026-04-10 14:26 | 41.78761 | -87.74699 | 628 ft | 9 kts | 240° |
| 2026-04-10 14:27 | 41.78704 | -87.74774 | 629 ft | 11 kts | 212° |
| 2026-04-10 14:27 | 41.78620 | -87.74783 | 628 ft | 13 kts | 178° |
| 2026-04-10 14:27 | 41.78532 | -87.74779 | 633 ft | 12 kts | 178° |
| 2026-04-10 14:27 | 41.78444 | -87.74776 | 632 ft | 14 kts | 178° |
| 2026-04-10 14:28 | 41.78345 | -87.74742 | 629 ft | 17 kts | 143° |
| 2026-04-10 14:28 | 41.78256 | -87.74625 | 630 ft | 19 kts | 134° |
| 2026-04-10 14:28 | 41.78166 | -87.74498 | 627 ft | 18 kts | 133° |
| 2026-04-10 14:28 | 41.78079 | -87.74375 | 628 ft | 18 kts | 134° |
| 2026-04-10 14:29 | 41.78017 | -87.74301 | 635 ft | 10 kts | 164° |
| 2026-04-10 14:29 | 41.78010 | -87.74300 | 635 ft | 0 kts | 177° |
| 2026-04-10 14:30 | 41.78006 | -87.74301 | 634 ft | 2 kts | 184° |
| 2026-04-10 14:30 | 41.77978 | -87.74321 | 632 ft | 8 kts | 221° |
| 2026-04-10 14:31 | 41.77941 | -87.74374 | 627 ft | 5 kts | 245° |
| 2026-04-10 14:31 | 41.77956 | -87.74418 | 630 ft | 6 kts | 309° |
| 2026-04-10 14:31 | 41.78004 | -87.74484 | 627 ft | 23 kts | 314° |
| 2026-04-10 14:31 | 41.78347 | -87.74968 | 630 ft | 118 kts | 313° |
| 2026-04-10 14:32 | 41.78974 | -87.76025 | 1050 ft | 159 kts | 301° |
| 2026-04-10 14:32 | 41.79309 | -87.77533 | 1921 ft | 180 kts | 273° |
| 2026-04-10 14:32 | 41.79222 | -87.79191 | 2936 ft | 184 kts | 267° |
| 2026-04-10 14:32 | 41.79071 | -87.81044 | 2991 ft | 206 kts | 266° |
| 2026-04-10 14:33 | 41.78909 | -87.82982 | 3016 ft | 213 kts | 266° |
| 2026-04-10 14:33 | 41.78742 | -87.85063 | 3320 ft | 234 kts | 268° |
| 2026-04-10 14:33 | 41.78721 | -87.87275 | 4008 ft | 241 kts | 274° |
| 2026-04-10 14:33 | 41.78772 | -87.89547 | 4767 ft | 250 kts | 274° |
| 2026-04-10 14:34 | 41.78834 | -87.91960 | 5383 ft | 266 kts | 274° |
| 2026-04-10 14:34 | 41.78891 | -87.94473 | 6457 ft | 272 kts | 274° |
| 2026-04-10 14:34 | 41.78940 | -87.97024 | 7724 ft | 275 kts | 274° |
| 2026-04-10 14:34 | 41.78985 | -87.99604 | 8974 ft | 280 kts | 274° |
| 2026-04-10 14:35 | 41.79025 | -88.02218 | 10275 ft | 280 kts | 274° |
| 2026-04-10 14:35 | 41.79064 | -88.04915 | 11154 ft | 301 kts | 273° |
| 2026-04-10 14:35 | 41.79104 | -88.07803 | 11799 ft | 322 kts | 272° |
| 2026-04-10 14:35 | 41.79141 | -88.10839 | 12909 ft | 327 kts | 272° |
| 2026-04-10 14:36 | 41.79175 | -88.13896 | 14127 ft | 330 kts | 271° |
| 2026-04-10 14:36 | 41.79207 | -88.16986 | 15301 ft | 334 kts | 269° |
| 2026-04-10 14:36 | 41.79238 | -88.20143 | 16364 ft | 342 kts | 268° |
| 2026-04-10 14:36 | 41.79269 | -88.23367 | 17300 ft | 351 kts | 268° |
| 2026-04-10 14:37 | 41.79289 | -88.25564 | 17901 ft | 358 kts | 267° |
| 2026-04-10 14:37 | 41.79319 | -88.28947 | 18764 ft | 368 kts | 266° |
| 2026-04-10 14:37 | 41.79349 | -88.32434 | 19576 ft | 379 kts | 266° |
| 2026-04-10 14:37 | 41.79380 | -88.36016 | 20342 ft | 390 kts | 266° |
| 2026-04-10 14:38 | 41.79411 | -88.39700 | 21089 ft | 400 kts | 266° |
| 2026-04-10 14:38 | 41.79443 | -88.43477 | 21798 ft | 411 kts | 266° |
| 2026-04-10 14:38 | 41.79475 | -88.47362 | 22496 ft | 421 kts | 267° |
| 2026-04-10 14:38 | 41.79507 | -88.51326 | 23172 ft | 430 kts | 268° |
| 2026-04-10 14:39 | 41.79538 | -88.55391 | 23845 ft | 439 kts | 268° |
| 2026-04-10 14:39 | 41.79569 | -88.59513 | 24516 ft | 447 kts | 269° |
| 2026-04-10 14:39 | 41.79599 | -88.63713 | 25177 ft | 454 kts | 269° |
| 2026-04-10 14:39 | 41.79628 | -88.67970 | 25842 ft | 460 kts | 270° |
| 2026-04-10 14:40 | 41.79655 | -88.72283 | 26509 ft | 465 kts | 271° |
| 2026-04-10 14:40 | 41.79680 | -88.76571 | 27172 ft | 468 kts | 272° |
| 2026-04-10 14:40 | 41.79661 | -88.80949 | 27845 ft | 472 kts | 269° |
| 2026-04-10 14:40 | 41.79263 | -88.85348 | 28506 ft | 476 kts | 263° |
| 2026-04-10 14:41 | 41.78687 | -88.89730 | 29186 ft | 478 kts | 262° |
| 2026-04-10 14:41 | 41.78074 | -88.94119 | 29834 ft | 480 kts | 263° |
| 2026-04-10 14:41 | 41.77468 | -88.98531 | 30353 ft | 483 kts | 263° |
| 2026-04-10 14:41 | 41.76880 | -89.02989 | 30821 ft | 487 kts | 263° |
| 2026-04-10 14:42 | 41.76305 | -89.07464 | 31398 ft | 487 kts | 263° |
| 2026-04-10 14:42 | 41.75734 | -89.11931 | 32066 ft | 485 kts | 263° |
| 2026-04-10 14:42 | 41.74978 | -89.16326 | 32724 ft | 486 kts | 256° |
| 2026-04-10 14:42 | 41.73737 | -89.20537 | 33360 ft | 486 kts | 246° |
| 2026-04-10 14:43 | 41.72240 | -89.24590 | 33968 ft | 485 kts | 245° |
| 2026-04-10 14:43 | 41.70705 | -89.28606 | 34518 ft | 484 kts | 245° |
| 2026-04-10 14:43 | 41.69190 | -89.32562 | 34996 ft | 484 kts | 245° |
| 2026-04-10 14:43 | 41.67666 | -89.36584 | 35460 ft | 484 kts | 245° |
| 2026-04-10 14:44 | 41.66163 | -89.40594 | 35947 ft | 483 kts | 245° |
| 2026-04-10 14:44 | 41.64672 | -89.44606 | 36446 ft | 481 kts | 245° |
| 2026-04-10 14:44 | 41.63188 | -89.48612 | 36879 ft | 481 kts | 246° |
| 2026-04-10 14:44 | 41.61698 | -89.52635 | 37260 ft | 482 kts | 246° |
| 2026-04-10 14:45 | 41.60211 | -89.56643 | 37642 ft | 482 kts | 245° |
| 2026-04-10 14:45 | 41.58717 | -89.60659 | 38052 ft | 482 kts | 245° |
| 2026-04-10 14:45 | 41.57228 | -89.64655 | 38459 ft | 481 kts | 245° |
| 2026-04-10 14:45 | 41.55733 | -89.68662 | 38840 ft | 481 kts | 245° |
| 2026-04-10 14:46 | 41.54261 | -89.72599 | 39255 ft | 479 kts | 245° |
| 2026-04-10 14:46 | 41.52758 | -89.76556 | 39675 ft | 478 kts | 244° |
| 2026-04-10 14:46 | 41.51175 | -89.80484 | 39734 ft | 484 kts | 243° |
| 2026-04-10 14:47 | 41.47885 | -89.88327 | 39741 ft | 482 kts | 242° |
| 2026-04-10 14:47 | 41.44635 | -89.96033 | 39744 ft | 475 kts | 243° |
| 2026-04-10 14:48 | 41.41415 | -90.03739 | 39754 ft | 476 kts | 243° |
| 2026-04-10 14:48 | 41.38192 | -90.11473 | 39751 ft | 478 kts | 243° |
| 2026-04-10 14:49 | 41.34958 | -90.19221 | 39750 ft | 479 kts | 243° |
| 2026-04-10 14:49 | 41.31710 | -90.26975 | 39750 ft | 480 kts | 243° |
| 2026-04-10 14:50 | 41.28473 | -90.34684 | 39747 ft | 480 kts | 243° |
| 2026-04-10 14:50 | 41.25211 | -90.42430 | 39749 ft | 480 kts | 243° |
| 2026-04-10 14:51 | 41.21943 | -90.50171 | 39746 ft | 480 kts | 242° |
| 2026-04-10 14:51 | 41.18666 | -90.57913 | 39747 ft | 480 kts | 242° |
| 2026-04-10 14:52 | 41.15387 | -90.65640 | 39748 ft | 479 kts | 242° |
| 2026-04-10 14:52 | 41.12127 | -90.73302 | 39745 ft | 479 kts | 242° |
| 2026-04-10 14:53 | 41.08852 | -90.80982 | 39748 ft | 477 kts | 242° |
| 2026-04-10 14:53 | 41.05580 | -90.88635 | 39746 ft | 477 kts | 242° |
| 2026-04-10 14:54 | 41.02304 | -90.96277 | 39748 ft | 476 kts | 242° |
| 2026-04-10 14:54 | 40.99030 | -91.03894 | 39748 ft | 476 kts | 242° |
| 2026-04-10 14:55 | 40.95749 | -91.11510 | 39747 ft | 476 kts | 242° |
| 2026-04-10 14:55 | 40.92481 | -91.19077 | 39747 ft | 476 kts | 242° |
| 2026-04-10 14:56 | 40.89184 | -91.26690 | 39751 ft | 477 kts | 242° |
| 2026-04-10 14:56 | 40.85887 | -91.34286 | 39745 ft | 477 kts | 242° |
| 2026-04-10 14:57 | 40.82579 | -91.41889 | 39749 ft | 477 kts | 242° |
| 2026-04-10 14:57 | 40.79262 | -91.49496 | 39746 ft | 478 kts | 242° |
| 2026-04-10 14:58 | 40.76267 | -91.57292 | 39755 ft | 475 kts | 248° |
| 2026-04-10 14:58 | 40.73669 | -91.65261 | 39745 ft | 475 kts | 249° |
| 2026-04-10 14:59 | 40.71066 | -91.73274 | 39748 ft | 476 kts | 249° |
| 2026-04-10 14:59 | 40.68408 | -91.81266 | 39750 ft | 476 kts | 248° |
| 2026-04-10 15:00 | 40.65725 | -91.89234 | 39745 ft | 476 kts | 248° |
| 2026-04-10 15:00 | 40.63029 | -91.97203 | 39748 ft | 476 kts | 248° |
| 2026-04-10 15:01 | 40.60333 | -92.05158 | 39748 ft | 476 kts | 248° |
| 2026-04-10 15:01 | 40.57646 | -92.13069 | 39748 ft | 476 kts | 248° |
| 2026-04-10 15:02 | 40.54942 | -92.21009 | 39748 ft | 476 kts | 248° |
| 2026-04-10 15:02 | 40.52228 | -92.28953 | 39746 ft | 476 kts | 248° |
| 2026-04-10 15:03 | 40.49510 | -92.36891 | 39748 ft | 476 kts | 248° |
| 2026-04-10 15:03 | 40.46785 | -92.44824 | 39747 ft | 476 kts | 248° |
| 2026-04-10 15:04 | 40.44072 | -92.52701 | 39749 ft | 476 kts | 248° |
| 2026-04-10 15:04 | 40.41342 | -92.60611 | 39745 ft | 476 kts | 248° |
| 2026-04-10 15:05 | 40.36391 | -92.71857 | 39757 ft | 479 kts | 228° |
| 2026-04-10 15:05 | 40.31266 | -92.77395 | 39761 ft | 479 kts | 213° |
| 2026-04-10 15:06 | 40.25676 | -92.82157 | 39747 ft | 479 kts | 212° |
| 2026-04-10 15:06 | 40.20076 | -92.86896 | 39747 ft | 480 kts | 212° |
| 2026-04-10 15:07 | 40.14492 | -92.91691 | 39748 ft | 480 kts | 213° |
| 2026-04-10 15:07 | 40.08923 | -92.96508 | 39747 ft | 480 kts | 213° |
| 2026-04-10 15:08 | 40.03384 | -93.01299 | 39747 ft | 480 kts | 213° |
| 2026-04-10 15:08 | 39.97818 | -93.06102 | 39747 ft | 480 kts | 213° |
| 2026-04-10 15:09 | 39.92242 | -93.10902 | 39748 ft | 480 kts | 213° |
| 2026-04-10 15:09 | 39.86663 | -93.15692 | 39746 ft | 480 kts | 213° |
| 2026-04-10 15:10 | 39.81093 | -93.20467 | 39748 ft | 479 kts | 213° |
| 2026-04-10 15:10 | 39.75522 | -93.25232 | 39747 ft | 479 kts | 213° |
| 2026-04-10 15:11 | 39.69954 | -93.29986 | 39748 ft | 479 kts | 213° |
| 2026-04-10 15:11 | 39.64420 | -93.34701 | 39749 ft | 479 kts | 212° |
| 2026-04-10 15:12 | 39.58815 | -93.39468 | 39746 ft | 479 kts | 212° |
| 2026-04-10 15:12 | 39.53278 | -93.44167 | 39748 ft | 479 kts | 212° |
| 2026-04-10 15:13 | 39.47695 | -93.48897 | 39748 ft | 479 kts | 212° |
| 2026-04-10 15:13 | 39.42122 | -93.53608 | 39748 ft | 479 kts | 212° |
| 2026-04-10 15:14 | 39.36540 | -93.58318 | 39748 ft | 479 kts | 212° |
| 2026-04-10 15:14 | 39.30954 | -93.63023 | 39747 ft | 479 kts | 212° |
| 2026-04-10 15:15 | 39.25370 | -93.67717 | 39748 ft | 479 kts | 212° |
| 2026-04-10 15:15 | 39.19820 | -93.72373 | 39748 ft | 479 kts | 212° |
| 2026-04-10 15:16 | 39.14229 | -93.77054 | 39747 ft | 479 kts | 212° |
| 2026-04-10 15:16 | 39.08634 | -93.81730 | 39748 ft | 479 kts | 212° |
| 2026-04-10 15:17 | 39.03046 | -93.86392 | 39747 ft | 479 kts | 212° |
| 2026-04-10 15:17 | 38.97449 | -93.91052 | 39748 ft | 479 kts | 212° |
| 2026-04-10 15:18 | 38.91851 | -93.95704 | 39747 ft | 479 kts | 212° |
| 2026-04-10 15:18 | 38.86247 | -94.00351 | 39749 ft | 479 kts | 212° |
| 2026-04-10 15:19 | 38.80651 | -94.04984 | 39748 ft | 479 kts | 212° |
| 2026-04-10 15:19 | 38.75082 | -94.09585 | 39747 ft | 479 kts | 212° |
| 2026-04-10 15:20 | 38.69482 | -94.14203 | 39748 ft | 479 kts | 212° |
| 2026-04-10 15:20 | 38.63876 | -94.18818 | 39748 ft | 479 kts | 212° |
| 2026-04-10 15:21 | 38.58270 | -94.23423 | 39748 ft | 479 kts | 212° |
| 2026-04-10 15:21 | 38.52656 | -94.28027 | 39747 ft | 479 kts | 212° |
| 2026-04-10 15:22 | 38.47047 | -94.32618 | 39748 ft | 479 kts | 212° |
| 2026-04-10 15:22 | 38.41445 | -94.37196 | 39748 ft | 479 kts | 212° |
| 2026-04-10 15:23 | 38.35829 | -94.41777 | 39746 ft | 479 kts | 212° |
| 2026-04-10 15:23 | 38.30217 | -94.46346 | 39748 ft | 479 kts | 212° |
| 2026-04-10 15:24 | 38.25503 | -94.50037 | 39744 ft | 478 kts | 207° |
| 2026-04-10 15:24 | 38.19591 | -94.53899 | 39759 ft | 477 kts | 205° |
| 2026-04-10 15:25 | 38.13629 | -94.57615 | 39746 ft | 478 kts | 205° |
| 2026-04-10 15:25 | 38.07674 | -94.61374 | 39748 ft | 478 kts | 205° |
| 2026-04-10 15:26 | 38.01737 | -94.65169 | 39748 ft | 478 kts | 205° |
| 2026-04-10 15:26 | 37.95794 | -94.68979 | 39749 ft | 478 kts | 205° |
| 2026-04-10 15:27 | 37.89901 | -94.72750 | 39747 ft | 478 kts | 205° |
| 2026-04-10 15:27 | 37.83961 | -94.76541 | 39749 ft | 478 kts | 205° |
| 2026-04-10 15:28 | 37.78009 | -94.80332 | 39748 ft | 478 kts | 205° |
| 2026-04-10 15:28 | 37.72066 | -94.84111 | 39747 ft | 478 kts | 205° |
| 2026-04-10 15:29 | 37.66149 | -94.87866 | 39748 ft | 478 kts | 205° |
| 2026-04-10 15:29 | 37.60203 | -94.91632 | 39746 ft | 478 kts | 205° |
| 2026-04-10 15:30 | 37.54262 | -94.95389 | 39748 ft | 478 kts | 205° |
| 2026-04-10 15:30 | 37.48311 | -94.99146 | 39748 ft | 478 kts | 205° |
| 2026-04-10 15:31 | 37.42363 | -95.02894 | 39748 ft | 478 kts | 205° |
| 2026-04-10 15:31 | 37.36452 | -95.06611 | 39747 ft | 478 kts | 205° |
| 2026-04-10 15:32 | 37.30463 | -95.10372 | 39747 ft | 478 kts | 205° |
| 2026-04-10 15:32 | 37.24557 | -95.14073 | 39748 ft | 477 kts | 205° |
| 2026-04-10 15:33 | 37.18617 | -95.17790 | 39747 ft | 477 kts | 205° |
| 2026-04-10 15:33 | 37.12657 | -95.21512 | 39748 ft | 477 kts | 205° |
| 2026-04-10 15:34 | 37.06702 | -95.25224 | 39748 ft | 477 kts | 205° |
| 2026-04-10 15:34 | 37.00750 | -95.28928 | 39747 ft | 477 kts | 205° |
| 2026-04-10 15:35 | 36.94796 | -95.32627 | 39748 ft | 477 kts | 205° |
| 2026-04-10 15:35 | 36.88886 | -95.36293 | 39748 ft | 477 kts | 205° |
| 2026-04-10 15:36 | 36.82924 | -95.39984 | 39748 ft | 477 kts | 205° |
| 2026-04-10 15:36 | 36.76968 | -95.43666 | 39746 ft | 477 kts | 205° |
| 2026-04-10 15:37 | 36.71020 | -95.47337 | 39749 ft | 477 kts | 205° |
| 2026-04-10 15:37 | 36.65064 | -95.51005 | 39748 ft | 477 kts | 205° |
| 2026-04-10 15:38 | 36.59114 | -95.54660 | 39747 ft | 477 kts | 205° |
| 2026-04-10 15:38 | 36.53165 | -95.58311 | 39748 ft | 477 kts | 205° |
| 2026-04-10 15:39 | 36.47214 | -95.61957 | 39747 ft | 477 kts | 205° |
| 2026-04-10 15:39 | 36.41267 | -95.65595 | 39748 ft | 477 kts | 205° |
| 2026-04-10 15:40 | 36.35357 | -95.69205 | 39747 ft | 477 kts | 205° |
| 2026-04-10 15:40 | 36.29409 | -95.72832 | 39746 ft | 477 kts | 205° |
| 2026-04-10 15:41 | 36.23499 | -95.76576 | 39728 ft | 478 kts | 215° |
| 2026-04-10 15:41 | 36.21089 | -95.79373 | 39764 ft | 475 kts | 233° |
| 2026-04-10 15:41 | 36.19366 | -95.82812 | 39729 ft | 462 kts | 249° |
| 2026-04-10 15:42 | 36.18443 | -95.86513 | 39746 ft | 440 kts | 263° |
| 2026-04-10 15:42 | 36.17938 | -95.90181 | 39692 ft | 427 kts | 265° |
| 2026-04-10 15:42 | 36.17493 | -95.93825 | 38937 ft | 433 kts | 265° |
| 2026-04-10 15:42 | 36.17054 | -95.97570 | 37925 ft | 445 kts | 265° |
| 2026-04-10 15:43 | 36.16595 | -96.01412 | 36976 ft | 455 kts | 265° |
| 2026-04-10 15:43 | 36.16113 | -96.05303 | 36068 ft | 461 kts | 264° |
| 2026-04-10 15:43 | 36.15608 | -96.09243 | 35183 ft | 465 kts | 264° |
| 2026-04-10 15:43 | 36.15088 | -96.13206 | 34286 ft | 468 kts | 264° |
| 2026-04-10 15:44 | 36.14565 | -96.17144 | 33403 ft | 470 kts | 264° |
| 2026-04-10 15:44 | 36.14030 | -96.21132 | 32732 ft | 467 kts | 264° |
| 2026-04-10 15:44 | 36.13501 | -96.25057 | 32184 ft | 460 kts | 264° |
| 2026-04-10 15:44 | 36.12977 | -96.28942 | 31621 ft | 455 kts | 264° |
| 2026-04-10 15:45 | 36.12458 | -96.32788 | 31014 ft | 450 kts | 264° |
| 2026-04-10 15:45 | 36.11945 | -96.36595 | 30402 ft | 447 kts | 264° |
| 2026-04-10 15:45 | 36.11435 | -96.40377 | 29786 ft | 443 kts | 264° |
| 2026-04-10 15:45 | 36.10930 | -96.44113 | 29196 ft | 439 kts | 264° |
| 2026-04-10 15:46 | 36.10429 | -96.47798 | 28465 ft | 429 kts | 263° |
| 2026-04-10 15:46 | 36.09937 | -96.51434 | 27431 ft | 429 kts | 262° |
| 2026-04-10 15:46 | 36.09443 | -96.55079 | 26396 ft | 430 kts | 261° |
| 2026-04-10 15:46 | 36.08956 | -96.58659 | 25550 ft | 424 kts | 259° |
| 2026-04-10 15:47 | 36.08470 | -96.62219 | 24829 ft | 415 kts | 258° |
| 2026-04-10 15:47 | 36.07995 | -96.65700 | 24118 ft | 408 kts | 257° |
| 2026-04-10 15:47 | 36.07520 | -96.69152 | 23455 ft | 405 kts | 257° |
| 2026-04-10 15:47 | 36.07050 | -96.72561 | 22862 ft | 400 kts | 256° |
| 2026-04-10 15:48 | 36.06586 | -96.75926 | 22207 ft | 395 kts | 256° |
| 2026-04-10 15:48 | 36.06125 | -96.79258 | 21589 ft | 389 kts | 256° |
| 2026-04-10 15:48 | 36.05672 | -96.82527 | 20965 ft | 380 kts | 256° |
| 2026-04-10 15:48 | 36.05236 | -96.85684 | 20376 ft | 365 kts | 256° |
| 2026-04-10 15:49 | 36.04817 | -96.88704 | 19826 ft | 350 kts | 256° |
| 2026-04-10 15:49 | 36.04412 | -96.91613 | 19284 ft | 337 kts | 256° |
| 2026-04-10 15:49 | 36.04021 | -96.94409 | 18763 ft | 326 kts | 256° |
| 2026-04-10 15:49 | 36.03633 | -96.97164 | 18243 ft | 322 kts | 256° |
| 2026-04-10 15:50 | 36.03254 | -96.99844 | 17734 ft | 318 kts | 257° |
| 2026-04-10 15:50 | 36.02877 | -97.02514 | 17218 ft | 314 kts | 257° |
| 2026-04-10 15:50 | 36.02506 | -97.05147 | 16711 ft | 309 kts | 258° |
| 2026-04-10 15:50 | 36.02139 | -97.07751 | 16108 ft | 308 kts | 258° |
| 2026-04-10 15:51 | 36.01770 | -97.10361 | 15485 ft | 307 kts | 259° |
| 2026-04-10 15:51 | 36.01405 | -97.12939 | 14954 ft | 303 kts | 259° |
| 2026-04-10 15:51 | 36.00986 | -97.15470 | 14527 ft | 298 kts | 251° |
| 2026-04-10 15:51 | 35.99969 | -97.17680 | 14289 ft | 298 kts | 233° |
| 2026-04-10 15:52 | 35.98501 | -97.19516 | 14052 ft | 303 kts | 226° |
| 2026-04-10 15:52 | 35.96919 | -97.21271 | 13689 ft | 309 kts | 224° |
| 2026-04-10 15:52 | 35.95286 | -97.23003 | 13124 ft | 307 kts | 224° |
| 2026-04-10 15:52 | 35.93687 | -97.24686 | 12555 ft | 305 kts | 224° |
| 2026-04-10 15:53 | 35.92079 | -97.26393 | 11936 ft | 305 kts | 224° |
| 2026-04-10 15:53 | 35.90473 | -97.28104 | 11320 ft | 306 kts | 224° |
| 2026-04-10 15:53 | 35.88856 | -97.29815 | 10704 ft | 306 kts | 224° |
| 2026-04-10 15:53 | 35.87218 | -97.31506 | 10088 ft | 307 kts | 223° |
| 2026-04-10 15:54 | 35.85566 | -97.33167 | 9731 ft | 300 kts | 221° |
| 2026-04-10 15:54 | 35.83975 | -97.34743 | 9513 ft | 287 kts | 222° |
| 2026-04-10 15:54 | 35.82427 | -97.36292 | 9055 ft | 286 kts | 221° |
| 2026-04-10 15:54 | 35.80868 | -97.37818 | 8613 ft | 285 kts | 221° |
| 2026-04-10 15:55 | 35.79323 | -97.39336 | 8171 ft | 283 kts | 221° |
| 2026-04-10 15:55 | 35.77814 | -97.40837 | 7733 ft | 282 kts | 221° |
| 2026-04-10 15:55 | 35.76294 | -97.42353 | 7294 ft | 280 kts | 221° |
| 2026-04-10 15:55 | 35.74786 | -97.43866 | 6847 ft | 279 kts | 221° |
| 2026-04-10 15:56 | 35.73280 | -97.45375 | 6402 ft | 277 kts | 221° |
| 2026-04-10 15:56 | 35.71796 | -97.46876 | 5967 ft | 276 kts | 221° |
| 2026-04-10 15:56 | 35.70308 | -97.48361 | 5531 ft | 274 kts | 221° |
| 2026-04-10 15:56 | 35.68841 | -97.49836 | 5151 ft | 270 kts | 221° |
| 2026-04-10 15:57 | 35.67419 | -97.51260 | 5035 ft | 257 kts | 221° |
| 2026-04-10 15:57 | 35.66089 | -97.52613 | 4937 ft | 238 kts | 223° |
| 2026-04-10 15:57 | 35.64878 | -97.53897 | 4814 ft | 221 kts | 224° |
| 2026-04-10 15:57 | 35.63795 | -97.55102 | 4700 ft | 205 kts | 226° |
| 2026-04-10 15:58 | 35.62792 | -97.56267 | 4610 ft | 191 kts | 227° |
| 2026-04-10 15:58 | 35.61879 | -97.57371 | 4545 ft | 182 kts | 228° |
| 2026-04-10 15:58 | 35.60958 | -97.58450 | 4495 ft | 183 kts | 219° |
| 2026-04-10 15:58 | 35.59770 | -97.58867 | 4529 ft | 176 kts | 181° |
| 2026-04-10 15:59 | 35.58578 | -97.58885 | 4508 ft | 166 kts | 182° |
| 2026-04-10 15:59 | 35.57426 | -97.58901 | 4502 ft | 167 kts | 182° |
| 2026-04-10 15:59 | 35.56256 | -97.58907 | 4336 ft | 169 kts | 181° |
| 2026-04-10 15:59 | 35.55089 | -97.58907 | 4127 ft | 166 kts | 181° |
| 2026-04-10 16:00 | 35.53938 | -97.58906 | 3914 ft | 168 kts | 181° |
| 2026-04-10 16:00 | 35.52724 | -97.58906 | 3694 ft | 179 kts | 181° |
| 2026-04-10 16:00 | 35.51468 | -97.58904 | 3451 ft | 178 kts | 181° |
| 2026-04-10 16:00 | 35.50259 | -97.58902 | 3194 ft | 168 kts | 181° |
| 2026-04-10 16:01 | 35.49133 | -97.58901 | 2989 ft | 156 kts | 181° |
| 2026-04-10 16:01 | 35.48066 | -97.58901 | 2796 ft | 153 kts | 181° |
| 2026-04-10 16:01 | 35.46992 | -97.58900 | 2585 ft | 155 kts | 181° |
| 2026-04-10 16:01 | 35.45945 | -97.58900 | 2368 ft | 147 kts | 181° |
| 2026-04-10 16:02 | 35.44946 | -97.58900 | 2134 ft | 142 kts | 182° |
| 2026-04-10 16:02 | 35.43980 | -97.58904 | 1942 ft | 137 kts | 181° |
| 2026-04-10 16:02 | 35.43044 | -97.58897 | 1742 ft | 131 kts | 181° |
| 2026-04-10 16:02 | 35.42150 | -97.58894 | 1579 ft | 126 kts | 181° |
| 2026-04-10 16:03 | 35.41285 | -97.58897 | 1443 ft | 123 kts | 182° |
| 2026-04-10 16:03 | 35.40436 | -97.58895 | 1312 ft | 123 kts | 180° |
| 2026-04-10 16:03 | 35.39674 | -97.58895 | 1290 ft | 83 kts | 180° |
| 2026-04-10 16:03 | 35.39309 | -97.58895 | 1291 ft | 22 kts | 180° |
| 2026-04-10 16:04 | 35.39226 | -97.58932 | 1292 ft | 12 kts | 237° |
| 2026-04-10 16:04 | 35.39216 | -97.59032 | 1290 ft | 12 kts | 271° |
| 2026-04-10 16:04 | 35.39217 | -97.59132 | 1291 ft | 11 kts | 270° |
| 2026-04-10 16:04 | 35.39217 | -97.59208 | 1293 ft | 5 kts | 277° |
| 2026-04-10 16:05 | 35.39243 | -97.59228 | 1293 ft | 5 kts | 6° |
| 2026-04-10 16:05 | 35.39279 | -97.59224 | 1293 ft | 6 kts | 4° |
| 2026-04-10 16:05 | 35.39318 | -97.59221 | 1293 ft | 6 kts | 1° |
| 2026-04-10 16:05 | 35.39356 | -97.59226 | 1294 ft | 6 kts | 339° |
| 2026-04-10 16:06 | 35.39382 | -97.59261 | 1295 ft | 6 kts | 291° |
| 2026-04-10 16:06 | 35.39384 | -97.59317 | 1296 ft | 7 kts | 268° |
| 2026-04-10 16:06 | 35.39383 | -97.59389 | 1296 ft | 10 kts | 270° |
| 2026-04-10 16:06 | 35.39383 | -97.59478 | 1297 ft | 11 kts | 270° |
| 2026-04-10 16:07 | 35.39384 | -97.59565 | 1297 ft | 9 kts | 270° |
| 2026-04-10 16:07 | 35.39384 | -97.59573 | 1297 ft | 1 kts | 270° |
| 2026-04-10 16:07 | 35.39384 | -97.59580 | 1297 ft | 1 kts | 270° |
| 2026-04-10 16:07 | 35.39384 | -97.59588 | 1297 ft | 1 kts | 278° |
| 2026-04-10 16:08 | 35.39389 | -97.59600 | 1297 ft | 2 kts | 297° |
| 2026-04-10 16:08 | 35.39406 | -97.59609 | 1296 ft | 4 kts | 353° |
| 2026-04-10 16:08 | 35.39431 | -97.59612 | 1296 ft | 3 kts | 354° |
| 2026-04-10 16:08 | 35.39448 | -97.59615 | 1296 ft | 2 kts | 353° |
| 2026-04-10 16:09 | 35.39457 | -97.59616 | 1296 ft | 1 kts | 353° |
| 2026-04-10 16:09 | 35.39458 | -97.59616 | 1296 ft | 0 kts | 353° |